Terminal Aerodrome Forecast
Issued by NWS La Crosse, WI

Home | Current Version | Previous Version | Text Only | Print | Product List | Glossary On
Versions: 1 2 3 4 5 6 7 8 9 10 11 12 13 14 15 16 17 18 19 20 21 22 23 24 25 26 27 28 29 30 31 32 33 34 35 36 37 38 39 40 41 42 43 44
000
FTUS43 KARX 191725
TAFRST
TAF
KRST 191725Z 1918/2018 32007KT P6SM FEW250
     FM200800 VRB03KT 2SM BR FEW150
     FM200900 VRB03KT 1SM BR SCT002
     FM201400 VRB03KT 3SM BR FEW010
     FM201500 VRB03KT P6SM FEW100=

USA.gov is the U.S. government's official web portal to all federal, state and local government web resources and services.